EDT,Max TemperatureF,Mean TemperatureF,Min TemperatureF,Max Dew PointF,MeanDew PointF,Min DewpointF,Max Humidity, Mean Humidity, Min Humidity, Max Sea Level PressureIn, Mean Sea Level PressureIn, Min Sea Level PressureIn, Max VisibilityMiles, Mean VisibilityMiles, Min VisibilityMiles, Max Wind SpeedMPH, Mean Wind SpeedMPH, Max Gust SpeedMPH,PrecipitationIn, CloudCover, Events, WindDirDegrees
2012-6-1,74,61,47,48,44,40,93,61,29,30.08,30.03,29.95,10,10,10,16,6,21,0.00,4,,360
2012-6-2,64,58,52,49,46,42,89,73,56,30.08,30.01,29.90,10,10,10,18,6,24,T,8,,121
2012-6-3,56,54,51,52,50,43,100,92,83,29.91,29.79,29.73,10,6,2,18,9,23,2.38,8,Rain,41
2012-6-4,58,53,48,50,46,42,93,80,67,29.83,29.77,29.71,10,8,2,23,12,29,0.23,8,Rain,31
2012-6-5,63,55,47,49,46,41,89,75,60,29.94,29.86,29.81,10,10,7,22,10,26,0.07,7,Rain,16
2012-6-6,64,56,48,52,46,43,93,74,55,29.99,29.95,29.92,10,10,10,18,7,22,0.07,7,Rain,1
2012-6-7,64,56,47,51,48,45,96,76,56,30.00,29.96,29.91,10,10,10,9,3,12,T,6,Rain,167
2012-6-8,62,52,42,55,50,42,100,89,78,29.91,29.83,29.73,10,7,0,17,5,23,0.23,7,Fog-Rain,186
2012-6-9,75,63,51,54,48,40,100,64,27,29.91,29.77,29.72,10,7,1,26,5,32,0.01,5,,296
2012-6-10,76,61,45,52,49,44,93,66,38,30.25,30.09,29.92,10,10,10,15,5,29,0.00,3,,58
2012-6-11,73,61,48,54,51,48,100,75,49,30.32,30.25,30.19,10,10,10,18,6,24,0.00,4,Fog,176
2012-6-12,72,62,52,57,54,50,93,73,53,30.18,30.06,29.96,10,10,10,21,9,28,0.00,3,,175
2012-6-13,61,59,57,59,57,54,97,92,86,30.09,30.00,29.94,10,7,2,15,8,28,0.34,8,Rain,177
2012-6-14,75,64,52,59,47,39,97,63,29,30.29,30.21,30.10,10,10,9,23,7,29,0.00,2,,8
2012-6-15,78,65,51,52,47,43,77,55,33,30.35,30.31,30.26,10,10,10,18,7,28,0.00,2,,22
2012-6-16,69,58,47,52,49,48,93,71,49,30.43,30.35,30.29,10,10,10,16,4,21,0.00,5,,86
2012-6-17,71,58,44,49,47,44,100,72,44,30.29,30.22,30.15,10,10,5,16,4,21,0.00,1,Fog,178
2012-6-18,69,59,48,52,49,46,96,73,49,30.20,30.17,30.12,10,10,6,12,6,15,0.00,5,,184
2012-6-19,73,62,51,60,55,49,100,79,57,30.16,30.08,29.99,10,8,2,16,8,16,0.00,7,,171
2012-6-20,92,75,58,70,63,57,100,71,41,29.96,29.87,29.77,10,8,1,17,7,17,0.00,5,,213
2012-6-21,82,73,63,66,61,55,93,71,48,29.83,29.78,29.72,10,9,1,14,5,14,0.00,5,Fog-Rain-Thunderstorm,60
2012-6-22,83,72,60,66,60,55,97,76,55,29.78,29.74,29.69,10,10,10,17,6,22,0.03,4,Thunderstorm,179
2012-6-23,71,66,60,63,61,58,97,85,73,29.87,29.82,29.78,10,7,1,21,4,25,0.17,8,Rain,25
2012-6-24,80,71,61,62,60,57,93,71,48,29.85,29.83,29.81,10,8,2,18,7,24,0.91,7,Rain,295
2012-6-25,74,66,58,63,59,56,100,79,57,29.81,29.74,29.69,10,9,5,18,5,24,0.18,7,Rain,158
2012-6-26,67,63,59,63,60,57,97,89,81,29.70,29.55,29.43,10,6,2,15,7,18,1.67,8,Rain-Thunderstorm,105
2012-6-27,69,64,59,62,59,57,93,85,76,29.60,29.47,29.40,10,8,2,16,8,21,0.71,7,Rain,199
2012-6-28,76,66,55,63,58,54,97,77,57,29.68,29.64,29.60,10,10,8,14,5,17,0.05,4,Rain,272
2012-6-29,83,70,57,64,61,57,100,76,51,29.67,29.58,29.49,10,10,2,20,6,23,0.01,4,Thunderstorm,190
2012-6-30,88,73,57,64,59,52,100,66,32,29.67,29.57,29.52,10,10,8,20,4,30,0.00,3,,232